createdAt,value
2023-01-20T00:00:16.946Z,-0.43
2023-01-20T00:01:16.920Z,-0.41
2023-01-20T00:02:16.998Z,-0.41
2023-01-20T00:03:16.938Z,-0.43
2023-01-20T00:04:16.934Z,-0.43
2023-01-20T00:05:16.870Z,-0.44
2023-01-20T00:06:16.872Z,-0.46
2023-01-20T00:07:16.838Z,-0.47
2023-01-20T00:08:16.851Z,-0.47
2023-01-20T00:09:16.831Z,-0.50
2023-01-20T00:10:16.842Z,-0.49
2023-01-20T00:11:16.787Z,-0.47
2023-01-20T00:12:16.769Z,-0.49
2023-01-20T00:13:16.746Z,-0.47
2023-01-20T00:14:16.736Z,-0.47
2023-01-20T00:15:19.758Z,-0.46
2023-01-20T00:16:19.776Z,-0.44
2023-01-20T00:17:16.695Z,-0.44
2023-01-20T00:18:16.691Z,-0.46
2023-01-20T00:19:16.668Z,-0.47
2023-01-20T00:20:16.697Z,-0.49
2023-01-20T00:21:16.707Z,-0.49
2023-01-20T00:22:16.641Z,-0.50
2023-01-20T00:23:16.617Z,-0.52
2023-01-20T00:24:16.618Z,-0.49
2023-01-20T00:25:16.819Z,-0.46
2023-01-20T00:26:16.581Z,-0.41
2023-01-20T00:27:17.309Z,-0.41
2023-01-20T00:28:16.552Z,-0.39
2023-01-20T00:29:16.532Z,-0.38
2023-01-20T00:30:16.547Z,-0.39
2023-01-20T00:31:16.533Z,-0.39
2023-01-20T00:32:16.490Z,-0.41
2023-01-20T00:33:16.470Z,-0.39
2023-01-20T00:34:16.462Z,-0.43
2023-01-20T00:35:19.512Z,-0.46
2023-01-20T00:36:19.508Z,-0.49
2023-01-20T00:37:16.421Z,-0.47
2023-01-20T00:38:16.414Z,-0.47
2023-01-20T00:39:16.411Z,-0.46
2023-01-20T00:40:16.384Z,-0.46
2023-01-20T00:41:16.444Z,-0.49
2023-01-20T00:42:16.355Z,-0.49
2023-01-20T00:43:16.344Z,-0.49
2023-01-20T00:44:16.343Z,-0.52
2023-01-20T00:45:16.337Z,-0.53
2023-01-20T00:46:16.369Z,-0.57
2023-01-20T00:47:16.323Z,-0.59
2023-01-20T00:48:16.277Z,-0.59
2023-01-20T00:49:16.267Z,-0.64
2023-01-20T00:50:16.255Z,-0.65
2023-01-20T00:51:16.238Z,-0.68
2023-01-20T00:52:16.252Z,-0.70
2023-01-20T00:53:16.211Z,-0.71
2023-01-20T00:54:16.245Z,-0.71
2023-01-20T00:55:19.178Z,-0.72
2023-01-20T00:56:19.198Z,-0.72
2023-01-20T00:57:16.145Z,-0.74
2023-01-20T00:58:16.132Z,-0.75
2023-01-20T00:59:16.128Z,-0.77
2023-01-20T01:00:16.181Z,-0.77
2023-01-20T01:01:16.188Z,-0.78
2023-01-20T01:02:16.198Z,-0.77
2023-01-20T01:03:16.065Z,-0.80
2023-01-20T01:04:16.045Z,-0.82
2023-01-20T01:05:16.027Z,-0.82
2023-01-20T01:06:16.073Z,-0.78
2023-01-20T01:07:16.004Z,-0.80
2023-01-20T01:08:15.990Z,-0.80
2023-01-20T01:09:15.979Z,-0.75
2023-01-20T01:10:15.980Z,-0.75
2023-01-20T01:11:15.938Z,-0.75
2023-01-20T01:12:15.960Z,-0.75
2023-01-20T01:13:15.927Z,-0.77
2023-01-20T01:14:15.918Z,-0.77
2023-01-20T01:15:19.027Z,-0.75
2023-01-20T01:16:18.996Z,-0.80
2023-01-20T01:17:15.867Z,-0.80
2023-01-20T01:18:15.862Z,-0.82
2023-01-20T01:19:15.853Z,-0.80
2023-01-20T01:20:15.841Z,-0.78
2023-01-20T01:21:15.817Z,-0.78
2023-01-20T01:22:15.839Z,-0.80
2023-01-20T01:23:15.789Z,-0.82
2023-01-20T01:24:15.779Z,-0.86
2023-01-20T01:25:15.867Z,-0.90
2023-01-20T01:26:15.758Z,-0.90
2023-01-20T01:27:15.750Z,-0.91
2023-01-20T01:28:15.771Z,-0.94
2023-01-20T01:29:15.700Z,-0.96
2023-01-20T01:30:15.711Z,-1.01
2023-01-20T01:31:15.736Z,-1.04
2023-01-20T01:32:15.665Z,-1.05
2023-01-20T01:33:15.683Z,-1.07
2023-01-20T01:34:15.687Z,-1.08
2023-01-20T01:35:18.613Z,-1.09
2023-01-20T01:36:18.637Z,-1.11
2023-01-20T01:37:15.593Z,-1.12
2023-01-20T01:38:15.572Z,-1.15
2023-01-20T01:39:15.560Z,-1.19
2023-01-20T01:40:15.621Z,-1.20
2023-01-20T01:41:15.541Z,-1.20
2023-01-20T01:42:15.538Z,-1.23
2023-01-20T01:43:15.513Z,-1.25
2023-01-20T01:44:15.501Z,-1.29
2023-01-20T01:45:15.694Z,-1.29
2023-01-20T01:46:15.503Z,-1.30
2023-01-20T01:47:15.455Z,-1.32
2023-01-20T01:48:15.463Z,-1.33
2023-01-20T01:49:15.436Z,-1.32
2023-01-20T01:50:15.425Z,-1.32
2023-01-20T01:51:15.463Z,-1.35
2023-01-20T01:52:15.414Z,-1.37
2023-01-20T01:53:15.388Z,-1.37
2023-01-20T01:54:15.385Z,-1.40
2023-01-20T01:55:18.363Z,-1.40
2023-01-20T01:56:18.385Z,-1.40
2023-01-20T01:57:15.357Z,-1.40
2023-01-20T01:58:15.324Z,-1.41
2023-01-20T01:59:15.316Z,-1.41
2023-01-20T02:00:15.297Z,-1.41
2023-01-20T02:01:15.373Z,-1.41
2023-01-20T02:02:15.324Z,-1.44
2023-01-20T02:03:15.256Z,-1.46
2023-01-20T02:04:15.249Z,-1.46
2023-01-20T02:05:15.532Z,-1.47
2023-01-20T02:06:15.246Z,-1.46
2023-01-20T02:07:15.230Z,-1.44
2023-01-20T02:08:15.237Z,-1.41
2023-01-20T02:09:15.209Z,-1.40
2023-01-20T02:10:15.166Z,-1.38
2023-01-20T02:11:15.151Z,-1.40
2023-01-20T02:12:15.140Z,-1.40
2023-01-20T02:13:15.153Z,-1.41
2023-01-20T02:14:15.171Z,-1.41
2023-01-20T02:15:18.114Z,-1.41
2023-01-20T02:16:18.128Z,-1.43
2023-01-20T02:17:15.078Z,-1.43
2023-01-20T02:18:15.070Z,-1.46
2023-01-20T02:19:15.057Z,-1.47
2023-01-20T02:20:15.081Z,-1.44
2023-01-20T02:21:15.044Z,-1.43
2023-01-20T02:22:15.021Z,-1.43
2023-01-20T02:23:15.004Z,-1.41
2023-01-20T02:24:14.985Z,-1.43
2023-01-20T02:25:15.237Z,-1.43
2023-01-20T02:26:15.019Z,-1.43
2023-01-20T02:27:14.951Z,-1.44
2023-01-20T02:28:14.932Z,-1.44
2023-01-20T02:29:14.921Z,-1.44
2023-01-20T02:30:14.936Z,-1.44
2023-01-20T02:31:14.930Z,-1.44
2023-01-20T02:32:14.913Z,-1.44
2023-01-20T02:33:14.868Z,-1.44
2023-01-20T02:34:14.859Z,-1.43
2023-01-20T02:35:17.832Z,-1.41
2023-01-20T02:36:17.929Z,-1.41
2023-01-20T02:37:14.823Z,-1.41
2023-01-20T02:38:14.808Z,-1.43
2023-01-20T02:39:27.425Z,-1.41
2023-01-20T02:40:15.780Z,-1.41
2023-01-20T02:41:14.762Z,-1.43
2023-01-20T02:42:14.802Z,-1.41
2023-01-20T02:43:14.743Z,-1.37
2023-01-20T02:44:14.713Z,-1.35
2023-01-20T02:45:15.026Z,-1.33
2023-01-20T02:46:14.702Z,-1.29
2023-01-20T02:47:14.674Z,-1.27
2023-01-20T02:48:14.713Z,-1.27
2023-01-20T02:49:14.654Z,-1.30
2023-01-20T02:50:14.642Z,-1.27
2023-01-20T02:51:14.638Z,-1.27
2023-01-20T02:52:14.609Z,-1.27
2023-01-20T02:53:14.604Z,-1.27
2023-01-20T02:54:14.634Z,-1.23
2023-01-20T02:55:17.575Z,-1.23
2023-01-20T02:56:17.581Z,-1.22
2023-01-20T02:57:14.554Z,-1.23
2023-01-20T02:58:14.549Z,-1.23
2023-01-20T02:59:14.515Z,-1.26
2023-01-20T03:00:14.548Z,-1.26
2023-01-20T03:01:14.751Z,-1.26
2023-01-20T03:02:14.486Z,-1.23
2023-01-20T03:03:14.464Z,-1.22
2023-01-20T03:04:14.503Z,-1.20
2023-01-20T03:05:14.791Z,-1.19
2023-01-20T03:06:14.469Z,-1.17
2023-01-20T03:07:14.427Z,-1.15
2023-01-20T03:08:14.395Z,-1.15
2023-01-20T03:09:14.385Z,-1.14
2023-01-20T03:10:14.380Z,-1.12
2023-01-20T03:11:14.396Z,-1.14
2023-01-20T03:12:14.347Z,-1.12
2023-01-20T03:13:14.336Z,-1.11
2023-01-20T03:14:14.327Z,-1.08
2023-01-20T03:15:17.317Z,-1.11
2023-01-20T03:16:17.393Z,-1.07
2023-01-20T03:17:14.286Z,-1.04
2023-01-20T03:18:14.267Z,-0.99
2023-01-20T03:19:14.260Z,-0.97
2023-01-20T03:20:14.248Z,-0.94
2023-01-20T03:21:14.313Z,-0.90
2023-01-20T03:22:14.226Z,-0.85
2023-01-20T03:23:14.202Z,-0.83
2023-01-20T03:24:14.178Z,-0.78
2023-01-20T03:25:14.450Z,-0.74
2023-01-20T03:26:14.156Z,-0.71
2023-01-20T03:27:14.188Z,-0.68
2023-01-20T03:28:14.131Z,-0.67
2023-01-20T03:29:14.121Z,-0.64
2023-01-20T03:30:14.111Z,-0.61
2023-01-20T03:31:14.259Z,-0.57
2023-01-20T03:32:14.085Z,-0.54
2023-01-20T03:33:14.091Z,-0.50
2023-01-20T03:34:14.043Z,-0.47
2023-01-20T03:35:17.381Z,-0.44
2023-01-20T03:36:17.046Z,-0.41
2023-01-20T03:37:14.049Z,-0.41
2023-01-20T03:38:14.023Z,-0.36
2023-01-20T03:39:13.992Z,-0.35
2023-01-20T03:40:13.989Z,-0.32
2023-01-20T03:41:13.951Z,-0.31
2023-01-20T03:42:13.974Z,-0.29
2023-01-20T03:43:13.967Z,-0.28
2023-01-20T03:44:13.933Z,-0.28
2023-01-20T03:45:14.217Z,-0.25
2023-01-20T03:46:13.975Z,-0.25
2023-01-20T03:47:13.872Z,-0.21
2023-01-20T03:48:13.855Z,-0.18
2023-01-20T03:49:13.873Z,-0.15
2023-01-20T03:50:13.832Z,-0.15
2023-01-20T03:51:13.818Z,-0.13
2023-01-20T03:52:13.833Z,-0.14
2023-01-20T03:53:13.806Z,-0.13
2023-01-20T03:54:13.833Z,-0.11
2023-01-20T03:55:17.291Z,-0.08
2023-01-20T03:56:16.767Z,-0.10
2023-01-20T03:57:13.744Z,-0.08
2023-01-20T03:58:13.749Z,-0.08
2023-01-20T03:59:13.713Z,-0.07
2023-01-20T04:00:13.727Z,-0.06
2023-01-20T04:01:18.436Z,-0.03
2023-01-20T04:02:14.859Z,-0.02
2023-01-20T04:03:13.693Z,0.00
2023-01-20T04:04:13.625Z,0.03
2023-01-20T04:05:14.055Z,0.03
2023-01-20T04:06:13.617Z,0.03
2023-01-20T04:07:13.586Z,0.05
2023-01-20T04:08:13.595Z,0.04
2023-01-20T04:09:13.587Z,0.07
2023-01-20T04:10:13.566Z,0.07
2023-01-20T04:11:13.576Z,0.08
2023-01-20T04:12:13.601Z,0.08
2023-01-20T04:13:13.508Z,0.08
2023-01-20T04:14:13.507Z,0.11
2023-01-20T04:15:17.052Z,0.10
2023-01-20T04:16:16.508Z,0.11
2023-01-20T04:17:13.468Z,0.11
2023-01-20T04:18:13.485Z,0.11
2023-01-20T04:19:13.438Z,0.12
2023-01-20T04:20:13.439Z,0.12
2023-01-20T04:21:13.408Z,0.15
2023-01-20T04:22:13.441Z,0.16
2023-01-20T04:23:13.380Z,0.19
2023-01-20T04:24:13.369Z,0.18
2023-01-20T04:25:13.834Z,0.19
2023-01-20T04:26:13.343Z,0.19
2023-01-20T04:27:13.327Z,0.21
2023-01-20T04:28:13.349Z,0.22
2023-01-20T04:29:13.428Z,0.22
2023-01-20T04:30:13.305Z,0.23
2023-01-20T04:31:28.655Z,0.23
2023-01-20T04:32:14.268Z,0.25
2023-01-20T04:33:13.280Z,0.25
2023-01-20T04:34:13.240Z,0.25
2023-01-20T04:35:16.649Z,0.25
2023-01-20T04:36:16.230Z,0.28
2023-01-20T04:37:13.207Z,0.28
2023-01-20T04:38:13.237Z,0.29
2023-01-20T04:39:13.170Z,0.29
2023-01-20T04:40:13.160Z,0.29
2023-01-20T04:41:13.146Z,0.29
2023-01-20T04:42:13.131Z,0.31
2023-01-20T04:43:13.121Z,0.31
2023-01-20T04:44:13.144Z,0.32
2023-01-20T04:45:13.332Z,0.32
2023-01-20T04:46:13.113Z,0.31
2023-01-20T04:47:13.062Z,0.32
2023-01-20T04:48:13.053Z,0.32
2023-01-20T04:49:13.032Z,0.32
2023-01-20T04:50:13.053Z,0.34
2023-01-20T04:51:13.027Z,0.34
2023-01-20T04:52:13.037Z,0.32
2023-01-20T04:53:12.973Z,0.34
2023-01-20T04:54:12.979Z,0.34
2023-01-20T04:55:16.317Z,0.32
2023-01-20T04:56:15.994Z,0.36
2023-01-20T04:57:12.937Z,0.36
2023-01-20T04:58:12.954Z,0.36
2023-01-20T04:59:12.896Z,0.37
2023-01-20T05:00:12.889Z,0.37
2023-01-20T05:01:12.969Z,0.34
2023-01-20T05:02:12.939Z,0.37
2023-01-20T05:03:12.844Z,0.36
2023-01-20T05:04:12.915Z,0.37
2023-01-20T05:05:13.371Z,0.39
2023-01-20T05:06:12.825Z,0.40
2023-01-20T05:07:12.798Z,0.40
2023-01-20T05:08:12.785Z,0.40
2023-01-20T05:09:12.773Z,0.39
2023-01-20T05:10:13.337Z,0.39
2023-01-20T05:11:12.755Z,0.40
2023-01-20T05:12:12.741Z,0.40
2023-01-20T05:13:12.705Z,0.41
2023-01-20T05:14:12.693Z,0.41
2023-01-20T05:15:16.041Z,0.40
2023-01-20T05:16:15.751Z,0.40
2023-01-20T05:17:12.649Z,0.41
2023-01-20T05:18:12.655Z,0.43
2023-01-20T05:19:12.975Z,0.43
2023-01-20T05:20:12.613Z,0.43
2023-01-20T05:21:12.626Z,0.41
2023-01-20T05:22:12.606Z,0.44
2023-01-20T05:23:12.599Z,0.43
2023-01-20T05:24:12.577Z,0.44
2023-01-20T05:25:12.918Z,0.43
2023-01-20T05:26:12.551Z,0.44
2023-01-20T05:27:12.538Z,0.44
2023-01-20T05:28:12.526Z,0.46
2023-01-20T05:29:12.508Z,0.47
2023-01-20T05:30:12.487Z,0.47
2023-01-20T05:31:12.574Z,0.44
2023-01-20T05:32:12.459Z,0.43
2023-01-20T05:33:12.449Z,0.40
2023-01-20T05:34:12.459Z,0.41
2023-01-20T05:35:15.696Z,0.41
2023-01-20T05:36:15.464Z,0.44
2023-01-20T05:37:12.399Z,0.46
2023-01-20T05:38:12.379Z,0.43
2023-01-20T05:39:12.352Z,0.47
2023-01-20T05:40:12.364Z,0.47
2023-01-20T05:41:12.358Z,0.47
2023-01-20T05:42:12.323Z,0.46
2023-01-20T05:43:13.161Z,0.46
2023-01-20T05:44:12.298Z,0.46
2023-01-20T05:45:12.398Z,0.44
2023-01-20T05:46:12.329Z,0.46
2023-01-20T05:47:12.247Z,0.43
2023-01-20T05:48:12.232Z,0.46
2023-01-20T05:49:12.236Z,0.46
2023-01-20T05:50:12.240Z,0.46
2023-01-20T05:51:12.190Z,0.47
2023-01-20T05:52:12.249Z,0.47
2023-01-20T05:53:12.163Z,0.47
2023-01-20T05:54:12.183Z,0.50
2023-01-20T05:55:15.414Z,0.52
2023-01-20T05:56:15.176Z,0.49
2023-01-20T05:57:12.115Z,0.52
2023-01-20T05:58:12.164Z,0.50
2023-01-20T05:59:12.074Z,0.49
2023-01-20T06:00:12.075Z,0.52
2023-01-20T06:01:12.120Z,0.49
2023-01-20T06:02:12.049Z,0.49
2023-01-20T06:03:12.024Z,0.50
2023-01-20T06:04:12.045Z,0.52
2023-01-20T06:05:12.124Z,0.56
2023-01-20T06:06:12.025Z,0.52
2023-01-20T06:07:11.975Z,0.55
2023-01-20T06:08:11.965Z,0.52
2023-01-20T06:09:11.996Z,0.52
2023-01-20T06:10:11.946Z,0.55
2023-01-20T06:11:11.934Z,0.56
2023-01-20T06:12:11.914Z,0.55
2023-01-20T06:13:11.888Z,0.56
2023-01-20T06:14:11.885Z,0.55
2023-01-20T06:15:15.100Z,0.55
2023-01-20T06:16:14.906Z,0.56
2023-01-20T06:17:11.855Z,0.55
2023-01-20T06:18:11.840Z,0.55
2023-01-20T06:19:11.814Z,0.56
2023-01-20T06:20:11.828Z,0.58
2023-01-20T06:21:11.807Z,0.58
2023-01-20T06:22:11.786Z,0.59
2023-01-20T06:23:11.760Z,0.59
2023-01-20T06:24:11.756Z,0.58
2023-01-20T06:25:11.759Z,0.58
2023-01-20T06:26:11.788Z,0.60
2023-01-20T06:27:13.611Z,0.60
2023-01-20T06:28:11.711Z,0.62
2023-01-20T06:29:11.681Z,0.60
2023-01-20T06:30:11.674Z,0.60
2023-01-20T06:31:11.756Z,0.62
2023-01-20T06:32:11.700Z,0.62
2023-01-20T06:33:11.629Z,0.62
2023-01-20T06:34:11.619Z,0.60
2023-01-20T06:35:14.808Z,0.65
2023-01-20T06:36:14.603Z,0.62
2023-01-20T06:37:11.570Z,0.65
2023-01-20T06:38:11.597Z,0.63
2023-01-20T06:39:11.554Z,0.63
2023-01-20T06:40:11.530Z,0.65
2023-01-20T06:41:11.510Z,0.65
2023-01-20T06:42:11.737Z,0.65
2023-01-20T06:43:11.511Z,0.66
2023-01-20T06:44:11.481Z,0.66
2023-01-20T06:45:11.478Z,0.66
2023-01-20T06:46:11.476Z,0.66
2023-01-20T06:47:11.444Z,0.62
2023-01-20T06:48:11.492Z,0.62
2023-01-20T06:49:11.436Z,0.63
2023-01-20T06:50:11.412Z,0.65
2023-01-20T06:51:11.389Z,0.65
2023-01-20T06:52:11.386Z,0.66
2023-01-20T06:53:11.367Z,0.66
2023-01-20T06:54:11.372Z,0.66
2023-01-20T06:55:14.635Z,0.63
2023-01-20T06:56:14.342Z,0.66
2023-01-20T06:57:11.352Z,0.65
2023-01-20T06:58:11.293Z,0.63
2023-01-20T06:59:11.272Z,0.65
2023-01-20T07:00:11.275Z,0.65
2023-01-20T07:01:11.340Z,0.65
2023-01-20T07:02:11.355Z,0.68
2023-01-20T07:03:13.958Z,0.66
2023-01-20T07:04:11.199Z,0.66
2023-01-20T07:05:11.212Z,0.68
2023-01-20T07:06:11.174Z,0.68
2023-01-20T07:07:11.185Z,0.66
2023-01-20T07:08:11.143Z,0.66
2023-01-20T07:09:11.134Z,0.68
2023-01-20T07:10:11.114Z,0.68
2023-01-20T07:11:11.096Z,0.68
2023-01-20T07:12:11.121Z,0.69
2023-01-20T07:13:11.072Z,0.69
2023-01-20T07:14:11.072Z,0.68
2023-01-20T07:15:14.320Z,0.68
2023-01-20T07:16:15.891Z,0.69
2023-01-20T07:17:11.052Z,0.69
2023-01-20T07:18:11.012Z,0.68
2023-01-20T07:19:10.986Z,0.68
2023-01-20T07:20:10.989Z,0.66
2023-01-20T07:21:10.979Z,0.68
2023-01-20T07:22:11.026Z,0.68
2023-01-20T07:23:10.952Z,0.69
2023-01-20T07:24:10.917Z,0.66
2023-01-20T07:25:10.906Z,0.65
2023-01-20T07:26:10.892Z,0.65
2023-01-20T07:27:10.877Z,0.65
2023-01-20T07:28:10.916Z,0.66
2023-01-20T07:29:10.867Z,0.65
2023-01-20T07:30:10.828Z,0.65
2023-01-20T07:31:10.883Z,0.66
2023-01-20T07:32:10.811Z,0.65
2023-01-20T07:33:10.796Z,0.66
2023-01-20T07:34:10.799Z,0.66
2023-01-20T07:35:14.242Z,0.66
2023-01-20T07:36:13.771Z,0.68
2023-01-20T07:37:10.737Z,0.68
2023-01-20T07:38:10.719Z,0.68
2023-01-20T07:39:10.762Z,0.69
2023-01-20T07:40:10.698Z,0.70
2023-01-20T07:41:10.691Z,0.69
2023-01-20T07:42:10.677Z,0.70
2023-01-20T07:43:10.790Z,0.70
2023-01-20T07:44:10.651Z,0.70
2023-01-20T07:45:10.659Z,0.73
2023-01-20T07:46:10.616Z,0.73
2023-01-20T07:47:10.601Z,0.74
2023-01-20T07:48:10.589Z,0.74
2023-01-20T07:49:12.208Z,0.77
2023-01-20T07:50:10.619Z,0.77
2023-01-20T07:51:10.554Z,0.76
2023-01-20T07:52:10.540Z,0.77
2023-01-20T07:53:10.560Z,0.78
2023-01-20T07:54:10.503Z,0.80
2023-01-20T07:55:13.909Z,0.78
2023-01-20T07:56:13.492Z,0.78
2023-01-20T07:57:10.475Z,0.81
2023-01-20T07:58:10.451Z,0.81
2023-01-20T07:59:10.442Z,0.81
2023-01-20T08:00:10.421Z,0.78
2023-01-20T08:01:10.520Z,0.81
2023-01-20T08:02:10.417Z,0.83
2023-01-20T08:03:10.384Z,0.83
2023-01-20T08:04:10.363Z,0.84
2023-01-20T08:05:10.458Z,0.86
2023-01-20T08:06:10.353Z,0.86
2023-01-20T08:07:10.383Z,0.87
2023-01-20T08:08:10.311Z,0.87
2023-01-20T08:09:10.302Z,0.88
2023-01-20T08:10:10.288Z,0.91
2023-01-20T08:11:10.276Z,0.92
2023-01-20T08:12:10.265Z,0.91
2023-01-20T08:13:10.302Z,0.91
2023-01-20T08:14:10.232Z,0.88
2023-01-20T08:15:13.585Z,0.92
2023-01-20T08:16:13.252Z,0.92
2023-01-20T08:17:10.196Z,0.94
2023-01-20T08:18:10.173Z,0.95
2023-01-20T08:19:10.194Z,0.98
2023-01-20T08:20:10.145Z,0.96
2023-01-20T08:21:10.137Z,0.98
2023-01-20T08:22:10.173Z,1.02
2023-01-20T08:23:10.134Z,1.01
2023-01-20T08:24:10.095Z,1.04
2023-01-20T08:25:10.081Z,1.04
2023-01-20T08:26:10.071Z,1.06
2023-01-20T08:27:10.055Z,1.06
2023-01-20T08:28:10.065Z,1.05
2023-01-20T08:29:10.047Z,1.05
2023-01-20T08:30:10.013Z,1.06
2023-01-20T08:31:10.143Z,1.05
2023-01-20T08:32:09.987Z,1.08
2023-01-20T08:33:09.986Z,1.10
2023-01-20T08:34:09.957Z,1.12
2023-01-20T08:35:13.211Z,1.13
2023-01-20T08:36:12.976Z,1.14
2023-01-20T08:37:09.917Z,1.13
2023-01-20T08:38:09.906Z,1.14
2023-01-20T08:39:09.888Z,1.14
2023-01-20T08:40:09.885Z,1.14
2023-01-20T08:41:09.903Z,1.16
2023-01-20T08:42:09.866Z,1.16
2023-01-20T08:43:09.845Z,1.19
2023-01-20T08:44:09.856Z,1.19
2023-01-20T08:45:09.855Z,1.19
2023-01-20T08:46:09.870Z,1.22
2023-01-20T08:47:09.790Z,1.20
2023-01-20T08:48:09.774Z,1.24
2023-01-20T08:49:09.758Z,1.23
2023-01-20T08:50:09.752Z,1.24
2023-01-20T08:51:09.880Z,1.28
2023-01-20T08:52:12.150Z,1.28
2023-01-20T08:53:09.700Z,1.28
2023-01-20T08:54:09.703Z,1.30
2023-01-20T08:55:13.034Z,1.28
2023-01-20T08:56:12.684Z,1.28
2023-01-20T08:57:09.700Z,1.28
2023-01-20T08:58:09.669Z,1.28
2023-01-20T08:59:09.619Z,1.24
2023-01-20T09:00:09.607Z,1.26
2023-01-20T09:01:09.645Z,1.28
2023-01-20T09:02:09.605Z,1.28
2023-01-20T09:03:09.611Z,1.30
2023-01-20T09:04:09.551Z,1.30
2023-01-20T09:05:09.565Z,1.31
2023-01-20T09:06:09.531Z,1.32
2023-01-20T09:07:09.521Z,1.32
2023-01-20T09:08:09.514Z,1.31
2023-01-20T09:09:09.531Z,1.32
2023-01-20T09:10:09.474Z,1.32
2023-01-20T09:11:09.556Z,1.34
2023-01-20T09:12:09.450Z,1.31
2023-01-20T09:13:09.464Z,1.34
2023-01-20T09:14:09.425Z,1.32
2023-01-20T09:15:12.662Z,1.32
2023-01-20T09:16:12.435Z,1.35
2023-01-20T09:17:09.393Z,1.35
2023-01-20T09:18:09.404Z,1.37
2023-01-20T09:19:09.353Z,1.34
2023-01-20T09:20:09.342Z,1.38
2023-01-20T09:21:09.327Z,1.40
2023-01-20T09:22:09.319Z,1.41
2023-01-20T09:23:09.302Z,1.44
2023-01-20T09:24:09.326Z,1.42
2023-01-20T09:25:09.275Z,1.45
2023-01-20T09:26:09.263Z,1.48
2023-01-20T09:27:09.259Z,1.48
2023-01-20T09:28:09.293Z,1.48
2023-01-20T09:29:09.986Z,1.52
2023-01-20T09:30:09.205Z,1.53
2023-01-20T09:31:09.361Z,1.52
2023-01-20T09:32:09.187Z,1.50
2023-01-20T09:33:09.165Z,1.50
2023-01-20T09:34:09.217Z,1.50
2023-01-20T09:35:12.165Z,1.53
2023-01-20T09:36:12.155Z,1.52
2023-01-20T09:37:09.113Z,1.53
2023-01-20T09:38:09.099Z,1.55
2023-01-20T09:39:09.098Z,1.55
2023-01-20T09:40:09.104Z,1.56
2023-01-20T09:41:09.059Z,1.55
2023-01-20T09:42:09.049Z,1.56
2023-01-20T09:43:09.031Z,1.56
2023-01-20T09:44:09.207Z,1.58
2023-01-20T09:45:09.168Z,1.59
2023-01-20T09:46:09.030Z,1.60
2023-01-20T09:47:09.833Z,1.62
2023-01-20T09:48:09.249Z,1.63
2023-01-20T09:49:08.996Z,1.63
2023-01-20T09:50:08.958Z,1.63
2023-01-20T09:51:08.988Z,1.66
2023-01-20T09:52:08.961Z,1.68
2023-01-20T09:53:08.913Z,1.70
2023-01-20T09:54:08.897Z,1.71
2023-01-20T09:55:11.878Z,1.76
2023-01-20T09:56:11.917Z,1.77
2023-01-20T09:57:08.880Z,1.78
2023-01-20T09:58:08.835Z,1.85
2023-01-20T09:59:08.829Z,1.87
2023-01-20T10:00:08.817Z,1.92
2023-01-20T10:01:08.899Z,1.94
2023-01-20T10:02:08.782Z,1.97
2023-01-20T10:03:08.774Z,2.02
2023-01-20T10:04:08.761Z,2.04
2023-01-20T10:05:08.767Z,2.08
2023-01-20T10:06:08.723Z,2.11
2023-01-20T10:07:08.739Z,2.15
2023-01-20T10:08:08.689Z,2.22
2023-01-20T10:09:08.694Z,2.20
2023-01-20T10:10:08.660Z,2.24
2023-01-20T10:11:08.714Z,2.28
2023-01-20T10:12:08.642Z,2.32
2023-01-20T10:13:08.635Z,2.36
2023-01-20T10:14:08.612Z,2.43
2023-01-20T10:15:11.601Z,2.46
2023-01-20T10:16:11.683Z,2.51
2023-01-20T10:17:08.589Z,2.53
2023-01-20T10:18:08.568Z,2.51
2023-01-20T10:19:08.555Z,2.54
2023-01-20T10:20:08.539Z,2.56
2023-01-20T10:21:08.521Z,2.60
2023-01-20T10:22:08.551Z,2.62
2023-01-20T10:23:08.499Z,2.64
2023-01-20T10:24:08.487Z,2.69
2023-01-20T10:25:08.472Z,2.68
2023-01-20T10:26:08.454Z,2.71
2023-01-20T10:27:08.447Z,2.72
2023-01-20T10:28:08.483Z,2.74
2023-01-20T10:29:08.410Z,2.74
2023-01-20T10:30:08.396Z,2.75
2023-01-20T10:31:08.475Z,2.75
2023-01-20T10:32:08.375Z,2.77
2023-01-20T10:33:08.364Z,2.74
2023-01-20T10:34:08.397Z,2.75
2023-01-20T10:35:11.334Z,2.75
2023-01-20T10:36:11.336Z,2.75
2023-01-20T10:37:08.321Z,2.80
2023-01-20T10:38:08.285Z,2.80
2023-01-20T10:39:08.275Z,2.77
2023-01-20T10:40:08.286Z,2.75
2023-01-20T10:41:08.264Z,2.79
2023-01-20T10:42:08.236Z,2.80
2023-01-20T10:43:08.217Z,2.82
2023-01-20T10:44:08.227Z,2.86
2023-01-20T10:45:08.188Z,2.86
2023-01-20T10:46:09.396Z,2.85
2023-01-20T10:47:08.170Z,2.89
2023-01-20T10:48:08.163Z,2.90
2023-01-20T10:49:08.147Z,2.95
2023-01-20T10:50:08.130Z,2.95
2023-01-20T10:51:08.123Z,2.93
2023-01-20T10:52:08.134Z,2.92
2023-01-20T10:53:08.095Z,2.95
2023-01-20T10:54:08.076Z,2.95
2023-01-20T10:55:11.058Z,2.98
2023-01-20T10:56:11.057Z,3.01
2023-01-20T10:57:08.029Z,3.03
2023-01-20T10:58:08.049Z,3.08
2023-01-20T10:59:08.007Z,3.11
2023-01-20T11:00:07.991Z,3.11
2023-01-20T11:01:07.980Z,3.10
2023-01-20T11:02:12.310Z,3.07
2023-01-20T11:03:08.054Z,3.04
2023-01-20T11:04:07.964Z,3.05
2023-01-20T11:05:07.957Z,3.05
2023-01-20T11:06:07.915Z,3.07
2023-01-20T11:07:07.899Z,3.07
2023-01-20T11:08:07.920Z,3.07
2023-01-20T11:09:07.899Z,3.07
2023-01-20T11:10:07.877Z,3.07
2023-01-20T11:11:07.842Z,3.04
2023-01-20T11:12:07.831Z,3.00
2023-01-20T11:13:07.812Z,2.97
2023-01-20T11:14:07.822Z,2.93
2023-01-20T11:15:10.794Z,2.95
2023-01-20T11:16:10.799Z,2.97
2023-01-20T11:17:07.773Z,2.98
2023-01-20T11:18:07.744Z,3.00
2023-01-20T11:19:07.771Z,3.03
2023-01-20T11:20:07.756Z,3.07
2023-01-20T11:21:07.714Z,3.13
2023-01-20T11:22:07.692Z,3.18
2023-01-20T11:23:07.689Z,3.16
2023-01-20T11:24:07.663Z,3.14
2023-01-20T11:25:07.680Z,3.13
2023-01-20T11:26:07.645Z,3.11
2023-01-20T11:27:07.640Z,3.14
2023-01-20T11:28:07.603Z,3.16
2023-01-20T11:29:07.603Z,3.19
2023-01-20T11:30:07.603Z,3.25
2023-01-20T11:31:07.729Z,3.31
2023-01-20T11:32:07.564Z,3.40
2023-01-20T11:33:07.574Z,3.44
2023-01-20T11:34:07.530Z,3.48
2023-01-20T11:35:10.509Z,3.53
2023-01-20T11:36:10.552Z,3.58
2023-01-20T11:37:07.497Z,3.62
2023-01-20T11:38:07.479Z,3.62
2023-01-20T11:39:07.464Z,3.63
2023-01-20T11:40:07.446Z,3.69
2023-01-20T11:41:07.432Z,3.69
2023-01-20T11:42:07.489Z,3.70
2023-01-20T11:43:07.409Z,3.73
2023-01-20T11:44:07.393Z,3.73
2023-01-20T11:45:20.946Z,3.69
2023-01-20T11:46:08.380Z,3.70
2023-01-20T11:47:07.355Z,3.70
2023-01-20T11:48:07.400Z,3.68
2023-01-20T11:49:07.334Z,3.66
2023-01-20T11:50:07.316Z,3.63
2023-01-20T11:51:07.320Z,3.59
2023-01-20T11:52:07.289Z,3.51
2023-01-20T11:53:07.271Z,3.48
2023-01-20T11:54:07.289Z,3.42
2023-01-20T11:55:10.247Z,3.36
2023-01-20T11:56:10.256Z,3.31
2023-01-20T11:57:07.219Z,3.31
2023-01-20T11:58:07.249Z,3.31
2023-01-20T11:59:07.191Z,3.31
2023-01-20T12:00:07.190Z,3.31
2023-01-20T12:01:07.158Z,3.32
2023-01-20T12:02:07.259Z,3.34
2023-01-20T12:03:07.141Z,3.36
2023-01-20T12:04:07.208Z,3.36
2023-01-20T12:05:07.117Z,3.41
2023-01-20T12:06:07.102Z,3.42
2023-01-20T12:07:07.093Z,3.45
2023-01-20T12:08:07.073Z,3.47
2023-01-20T12:09:07.091Z,3.50
2023-01-20T12:10:07.050Z,3.51
2023-01-20T12:11:07.063Z,3.48
2023-01-20T12:12:07.027Z,3.45
2023-01-20T12:13:07.015Z,3.47
2023-01-20T12:14:07.002Z,3.48
2023-01-20T12:15:09.988Z,3.48
2023-01-20T12:16:10.192Z,3.53
2023-01-20T12:17:06.958Z,3.55
2023-01-20T12:18:09.532Z,3.56
2023-01-20T12:19:06.936Z,3.60
2023-01-20T12:20:06.930Z,3.60
2023-01-20T12:21:06.905Z,3.63
2023-01-20T12:22:06.930Z,3.68
2023-01-20T12:23:06.883Z,3.70
2023-01-20T12:24:06.869Z,3.73
2023-01-20T12:25:06.926Z,3.77
2023-01-20T12:26:06.850Z,3.80
2023-01-20T12:27:06.827Z,3.80
2023-01-20T12:28:06.817Z,3.77
2023-01-20T12:29:06.800Z,3.70
2023-01-20T12:30:06.788Z,3.68
2023-01-20T12:31:06.813Z,3.66
2023-01-20T12:32:06.864Z,3.68
2023-01-20T12:33:06.747Z,3.62
2023-01-20T12:34:06.736Z,3.63
2023-01-20T12:35:09.724Z,3.65
2023-01-20T12:36:09.754Z,3.66
2023-01-20T12:37:06.708Z,3.65
2023-01-20T12:38:06.691Z,3.62
2023-01-20T12:39:06.681Z,3.60
2023-01-20T12:40:06.658Z,3.65
2023-01-20T12:41:06.687Z,3.65
2023-01-20T12:42:06.641Z,3.63
2023-01-20T12:43:06.616Z,3.56
2023-01-20T12:44:06.606Z,3.59
2023-01-20T12:45:06.611Z,3.60
2023-01-20T12:46:06.659Z,3.63
2023-01-20T12:47:06.591Z,3.66
2023-01-20T12:48:06.561Z,3.69
2023-01-20T12:49:06.535Z,3.73
2023-01-20T12:50:06.534Z,3.73
2023-01-20T12:51:06.552Z,3.70
2023-01-20T12:52:06.502Z,3.70
2023-01-20T12:53:06.479Z,3.73
2023-01-20T12:54:06.488Z,3.73
2023-01-20T12:55:09.461Z,3.74
2023-01-20T12:56:09.596Z,3.73
2023-01-20T12:57:06.432Z,3.73
2023-01-20T12:58:06.420Z,3.70
2023-01-20T12:59:06.414Z,3.68
2023-01-20T13:00:06.404Z,3.60
2023-01-20T13:01:13.960Z,3.59
2023-01-20T13:02:06.377Z,3.63
2023-01-20T13:03:06.462Z,3.65
2023-01-20T13:04:06.342Z,3.66
2023-01-20T13:05:06.321Z,3.69
2023-01-20T13:06:06.328Z,3.73
2023-01-20T13:07:06.299Z,3.76
2023-01-20T13:08:06.291Z,3.80
2023-01-20T13:09:06.308Z,3.80
2023-01-20T13:10:06.269Z,3.83